X  Tanca Dades meteorològiques de l'aviació METAR        LGTS Thessaloniki Macedonia International
Temperatura
84°F Temperatura
72°F Rosada
66% Humitat



Vent
8 MPH
13 KM/H
4 M/S
7 NUS



290°
ONO
Condicions actuals

Mostly Sunny Majoritàriament assolellat
Pressió 1016 (hPa) - 30 (inHg)
Visibilitat 6 (milla) - 10 (km)
Aeroport
Codi aeroport LGTS

Ubicació: Thessaloniki Macedonia International
Distància: 85 (mi)

Metar:
METAR LGTS 200750Z 29007KT CAVOK 29/22 Q1016 NOSIG

Temps: 20-06-2024 10:50 EEST